Dewitt Spain (M01)
Memphis, TN
Field Elevation: 224
Lat: 35°12.04N  Long: 90°03.24W
CTAF/Unicom Freq: 122.7000
   
     For Weather-by-Phone, call 901-354-9296
Weather Advisories
2019-01-21   16:05 Z
Altimeter 30.47" Hg
Wind 060° @ 10 KT
Gusts 14 KT
Visibility 10 SM
Ceiling CLR
Temperature -2° C (28° F)
Dewpoint -8° C (18° F)
Relative Humidity 63%
Density Altitude --
Condensation Altitude 3,300 feet
Wind Chill: -8° C (18° F)
Wind and Runways
Indicated Runway = 35
Headwind = 3 kt
Crosswind = 9 kt
History
 
 
 
More Info
All DigiWx sites map
NOAA Forecast
 
Airport IQ 5010
(2M8) Charles W. Baker Airport
(3M3) Collegedale Muni
 
about DigiWx
 
FAA Disclaimer: The data displayed is for advisory purposes only and is not to be used for flight planning or operations. For official data, please call 901-354-9296 to hear the current automated AWOS voice message.
  METAR M01 211605Z AUTO 06010G14KT 10 SM CLR M02/M08 A3047